Flagg, Illinois
Current Conditions -  °F | °C
As of 8:35 AM on Friday 28 Nov 2014 (Local Time) from KRPJ Reporting Station
Clear Clear  
Wind Chill:   Ceiling: Unl
Heat Index: 18°   Visibility: 10mi
Dew Point: 14°   Wind: 15mph
Humidity: 83%   Direction: 150°SSE
Pressure: 30.21"   Gusts: NA
Location:  41.9424°N, 89.0653°W
Report Text: KRPJ 281435Z AUTO 15013KT 10SM CLR M08/M10 A3021 RMK AO2 T10761101
Loading
Personal Weather Stations






























Interactive Weather Map New forecast layout! Learn more

10-Day Weather Forecast

Advertisements
Track Severe Weather on mobile